createdAt,value
2022-11-24T00:00:35.098Z,51.80
2022-11-24T00:03:05.904Z,49.85
2022-11-24T00:05:39.145Z,55.00
2022-11-24T00:08:11.721Z,51.72
2022-11-24T00:10:41.647Z,52.72
2022-11-24T00:13:11.502Z,53.03
2022-11-24T00:15:41.423Z,52.40
2022-11-24T00:18:11.297Z,51.85
2022-11-24T00:20:41.183Z,50.60
2022-11-24T00:23:13.646Z,53.47
2022-11-24T00:25:43.524Z,49.50
2022-11-24T00:28:13.402Z,52.13
2022-11-24T00:30:43.317Z,53.40
2022-11-24T00:33:13.381Z,49.60
2022-11-24T00:35:43.255Z,48.78
2022-11-24T00:38:15.683Z,51.83
2022-11-24T00:40:46.241Z,53.55
2022-11-24T00:43:16.079Z,50.55
2022-11-24T00:45:46.304Z,48.03
2022-11-24T00:48:16.352Z,51.10
2022-11-24T00:50:46.222Z,50.38
2022-11-24T00:53:18.661Z,52.08
2022-11-24T00:55:52.557Z,49.38
2022-11-24T00:58:22.560Z,50.17
2022-11-24T01:00:52.858Z,49.00
2022-11-24T01:03:24.098Z,51.28
2022-11-24T01:05:54.004Z,53.30
2022-11-24T01:08:26.447Z,49.55
2022-11-24T01:10:56.312Z,49.85
2022-11-24T01:13:26.191Z,48.08
2022-11-24T01:15:56.101Z,49.78
2022-11-24T01:18:26.064Z,54.08
2022-11-24T01:20:55.970Z,50.00
2022-11-24T01:23:28.504Z,50.38
2022-11-24T01:25:58.405Z,49.50
2022-11-24T01:28:28.316Z,47.55
2022-11-24T01:31:01.573Z,47.55
2022-11-24T01:33:31.949Z,46.80
2022-11-24T01:36:02.227Z,46.65
2022-11-24T01:38:35.091Z,47.97
2022-11-24T01:41:07.408Z,46.00
2022-11-24T01:43:37.482Z,48.85
2022-11-24T01:46:16.797Z,45.92
2022-11-24T01:48:50.566Z,44.17
2022-11-24T01:51:26.852Z,49.97
2022-11-24T01:54:03.947Z,46.92
2022-11-24T01:56:36.384Z,46.88
2022-11-24T01:59:10.515Z,42.78
2022-11-24T02:01:40.586Z,45.33
2022-11-24T02:04:15.547Z,46.17
2022-11-24T02:06:48.865Z,45.55
2022-11-24T02:09:26.923Z,44.72
2022-11-24T02:11:57.541Z,43.28
2022-11-24T02:14:29.193Z,42.78
2022-11-24T02:16:59.113Z,44.53
2022-11-24T02:19:43.250Z,43.28
2022-11-24T02:22:19.114Z,45.80
2022-11-24T02:24:55.551Z,42.72
2022-11-24T02:27:28.856Z,43.63
2022-11-24T02:29:58.942Z,44.97
2022-11-24T02:32:29.019Z,42.80
2022-11-24T02:35:04.119Z,41.97
2022-11-24T02:37:34.006Z,44.58
2022-11-24T02:40:03.895Z,41.92
2022-11-24T02:42:40.568Z,43.60
2022-11-24T02:45:13.169Z,42.13
2022-11-24T02:47:43.038Z,42.13
2022-11-24T02:50:13.268Z,42.90
2022-11-24T02:52:43.784Z,41.63
2022-11-24T02:55:13.671Z,41.72
2022-11-24T02:57:46.130Z,40.30
2022-11-24T03:00:17.819Z,39.90
2022-11-24T03:02:47.863Z,42.08
2022-11-24T03:05:18.052Z,41.83
2022-11-24T03:07:48.035Z,42.63
2022-11-24T03:10:18.799Z,43.63
2022-11-24T03:12:51.250Z,41.97
2022-11-24T03:15:21.202Z,39.10
2022-11-24T03:17:51.707Z,42.13
2022-11-24T03:20:21.769Z,41.40
2022-11-24T03:22:51.645Z,40.25
2022-11-24T03:25:22.132Z,41.83
2022-11-24T03:27:54.609Z,40.33
2022-11-24T03:30:24.496Z,40.15
2022-11-24T03:32:55.639Z,41.70
2022-11-24T03:35:26.040Z,38.17
2022-11-24T03:37:56.021Z,40.15
2022-11-24T03:40:25.908Z,38.58
2022-11-24T03:42:58.579Z,36.88
2022-11-24T03:48:21.233Z,38.90
2022-11-24T03:50:57.693Z,37.70
2022-11-24T03:53:30.159Z,36.42
2022-11-24T03:56:00.681Z,36.35
2022-11-24T03:58:33.808Z,35.58
2022-11-24T04:01:03.699Z,35.53
2022-11-24T04:03:33.702Z,36.47
2022-11-24T04:06:03.595Z,40.00
2022-11-24T04:08:33.450Z,37.88
2022-11-24T04:11:03.354Z,36.30
2022-11-24T04:13:33.416Z,34.55
2022-11-24T04:16:03.306Z,36.70
2022-11-24T04:18:33.193Z,36.20
2022-11-24T04:21:05.384Z,32.08
2022-11-24T04:23:35.259Z,34.72
2022-11-24T04:26:05.125Z,36.00
2022-11-24T04:28:38.627Z,33.83
2022-11-24T04:31:09.699Z,33.25
2022-11-24T04:33:39.669Z,34.05
2022-11-24T04:36:10.210Z,32.45
2022-11-24T04:39:19.416Z,34.65
2022-11-24T04:41:29.934Z,33.30
2022-11-24T04:44:02.404Z,32.97
2022-11-24T04:46:32.299Z,32.28
2022-11-24T04:49:02.219Z,32.80
2022-11-24T04:51:32.119Z,34.47
2022-11-24T04:54:01.999Z,33.85
2022-11-24T04:56:31.887Z,32.58
2022-11-24T04:59:08.454Z,33.25
2022-11-24T05:01:38.729Z,31.65
2022-11-24T05:04:08.776Z,29.58
2022-11-24T05:06:38.652Z,31.13
2022-11-24T05:09:09.845Z,30.90
2022-11-24T05:11:39.675Z,31.70
2022-11-24T05:14:12.229Z,33.17
2022-11-24T05:16:42.097Z,33.35
2022-11-24T05:19:12.293Z,33.78
2022-11-24T05:21:42.184Z,33.75
2022-11-24T05:24:13.798Z,32.17
2022-11-24T05:26:43.599Z,30.13
2022-11-24T05:29:16.183Z,29.40
2022-11-24T05:31:46.067Z,30.73
2022-11-24T05:34:16.422Z,33.35
2022-11-24T05:37:01.393Z,31.60
2022-11-24T05:39:31.254Z,31.35
2022-11-24T05:42:01.141Z,30.75
2022-11-24T05:44:33.848Z,31.38
2022-11-24T05:47:03.898Z,31.70
2022-11-24T05:49:33.773Z,32.20
2022-11-24T05:52:03.590Z,31.67
2022-11-24T05:54:33.761Z,32.13
2022-11-24T05:57:03.825Z,32.67
2022-11-24T05:59:36.266Z,32.00
2022-11-24T06:02:06.189Z,33.28
2022-11-24T06:04:36.475Z,29.85
2022-11-24T06:07:07.126Z,30.00
2022-11-24T06:09:39.478Z,28.90
2022-11-24T06:12:10.794Z,31.77
2022-11-24T06:14:43.840Z,30.95
2022-11-24T06:17:14.251Z,30.17
2022-11-24T06:19:47.808Z,27.27
2022-11-24T06:22:19.048Z,28.35
2022-11-24T06:24:50.670Z,30.40
2022-11-24T06:27:20.962Z,31.08
2022-11-24T06:29:53.658Z,26.77
2022-11-24T06:32:24.209Z,28.33
2022-11-24T06:34:54.109Z,28.73
2022-11-24T06:37:23.975Z,28.60
2022-11-24T06:39:53.935Z,29.25
2022-11-24T06:42:23.801Z,26.60
2022-11-24T06:44:56.254Z,27.98
2022-11-24T06:47:26.097Z,29.55
2022-11-24T06:49:56.129Z,29.77
2022-11-24T06:52:26.081Z,28.95
2022-11-24T06:54:57.295Z,29.73
2022-11-24T06:57:27.205Z,30.20
2022-11-24T07:00:00.157Z,28.95
2022-11-24T07:02:30.321Z,26.80
2022-11-24T07:05:00.147Z,26.48
2022-11-24T07:07:30.008Z,27.40
2022-11-24T07:09:59.871Z,29.10
2022-11-24T07:12:29.764Z,27.98
2022-11-24T07:15:02.175Z,27.58
2022-11-24T07:17:32.025Z,26.52
2022-11-24T07:20:01.846Z,28.10
2022-11-24T07:22:31.706Z,28.52
2022-11-24T07:25:01.848Z,30.25
2022-11-24T07:27:31.816Z,26.08
2022-11-24T07:30:04.432Z,29.05
2022-11-24T07:32:34.370Z,25.75
2022-11-24T07:35:04.215Z,25.98
2022-11-24T07:37:34.138Z,29.77
2022-11-24T07:40:04.005Z,28.27
2022-11-24T07:42:33.846Z,27.15
2022-11-24T07:45:06.850Z,26.50
2022-11-24T07:47:36.704Z,25.40
2022-11-24T07:50:07.150Z,25.90
2022-11-24T07:52:37.078Z,28.58
2022-11-24T07:55:08.899Z,26.13
2022-11-24T07:57:39.080Z,27.05
2022-11-24T08:00:13.939Z,29.08
2022-11-24T08:02:44.695Z,26.50
2022-11-24T08:05:14.563Z,28.75
2022-11-24T08:07:44.460Z,25.30
2022-11-24T08:10:14.421Z,26.90
2022-11-24T08:12:44.303Z,29.88
2022-11-24T08:15:16.842Z,29.02
2022-11-24T08:17:46.882Z,29.55
2022-11-24T08:20:16.928Z,29.77
2022-11-24T08:22:46.818Z,29.08
2022-11-24T08:25:17.882Z,27.55
2022-11-24T08:27:47.732Z,27.27
2022-11-24T08:30:21.142Z,29.52
2022-11-24T08:32:51.006Z,28.13
2022-11-24T08:35:20.847Z,27.63
2022-11-24T08:37:51.071Z,26.65
2022-11-24T08:40:21.751Z,30.63
2022-11-24T08:42:51.620Z,30.05
2022-11-24T08:45:25.639Z,30.80
2022-11-24T08:47:56.757Z,28.00
2022-11-24T08:50:27.894Z,27.80
2022-11-24T08:52:57.792Z,28.85
2022-11-24T08:55:27.775Z,32.75
2022-11-24T08:57:57.580Z,28.23
2022-11-24T09:00:30.011Z,28.73
2022-11-24T09:03:01.069Z,27.45
2022-11-24T09:08:20.821Z,27.20
2022-11-24T09:10:51.526Z,28.75
2022-11-24T09:13:21.563Z,28.80
2022-11-24T09:15:53.987Z,29.23
2022-11-24T09:18:27.567Z,26.38
2022-11-24T09:21:09.761Z,30.10
2022-11-24T09:23:40.082Z,28.40
2022-11-24T09:26:13.221Z,30.13
2022-11-24T09:28:43.702Z,31.13
2022-11-24T09:31:19.006Z,30.05
2022-11-24T09:33:49.373Z,27.40
2022-11-24T09:36:19.406Z,29.10
2022-11-24T09:38:49.306Z,27.17
2022-11-24T09:41:53.898Z,27.83
2022-11-24T09:44:57.229Z,27.65
2022-11-24T09:47:41.589Z,27.15
2022-11-24T09:50:18.552Z,27.95
2022-11-24T09:52:54.011Z,27.90
2022-11-24T09:55:33.917Z,28.40
2022-11-24T09:58:20.196Z,30.45
2022-11-24T10:00:53.603Z,28.02
2022-11-24T10:03:33.006Z,27.27
2022-11-24T10:06:08.541Z,28.73
2022-11-24T10:08:56.428Z,29.77
2022-11-24T10:11:38.910Z,28.85
2022-11-24T10:14:53.432Z,29.40
2022-11-24T10:17:46.015Z,27.38
2022-11-24T10:20:30.584Z,27.52
2022-11-24T10:23:20.669Z,27.50
2022-11-24T10:25:55.658Z,28.02
2022-11-24T10:28:30.206Z,28.30
2022-11-24T10:31:19.254Z,26.17
2022-11-24T10:33:50.425Z,26.20
2022-11-24T10:36:32.399Z,27.38
2022-11-24T10:39:08.916Z,26.40
2022-11-24T10:41:49.465Z,26.02
2022-11-24T10:44:19.346Z,25.70
2022-11-24T10:46:49.326Z,25.45
2022-11-24T10:49:24.737Z,23.80
2022-11-24T10:52:07.776Z,23.95
2022-11-24T10:54:41.440Z,25.15
2022-11-24T10:57:11.439Z,26.67
2022-11-24T10:59:42.161Z,24.08
2022-11-24T11:02:32.823Z,22.88
2022-11-24T11:05:43.781Z,24.45
2022-11-24T11:08:26.793Z,24.52
2022-11-24T11:11:19.653Z,24.00
2022-11-24T11:14:03.104Z,25.65
2022-11-24T11:16:39.058Z,25.27
2022-11-24T11:20:01.754Z,26.42
2022-11-24T11:22:35.218Z,24.20
2022-11-24T11:25:21.680Z,22.52
2022-11-24T11:27:52.159Z,23.63
2022-11-24T11:36:17.562Z,24.48
2022-11-24T11:38:50.680Z,24.88
2022-11-24T11:41:29.516Z,25.50
2022-11-24T11:44:14.629Z,24.63
2022-11-24T11:46:46.583Z,26.38
2022-11-24T11:49:16.961Z,26.35
2022-11-24T11:52:04.182Z,27.10
2022-11-24T11:55:00.373Z,25.92
2022-11-24T11:57:41.319Z,24.58
2022-11-24T12:00:16.104Z,24.92
2022-11-24T12:05:59.110Z,25.73
2022-11-24T12:09:11.410Z,24.85
2022-11-24T12:11:40.248Z,27.23
2022-11-24T12:14:26.791Z,28.10
2022-11-24T12:17:08.134Z,26.08
2022-11-24T12:19:55.463Z,27.67
2022-11-24T12:22:36.755Z,27.50
2022-11-24T12:25:25.141Z,25.92
2022-11-24T12:28:11.751Z,26.23
2022-11-24T12:30:47.940Z,25.67
2022-11-24T12:33:56.533Z,24.27
2022-11-24T12:36:47.691Z,25.08
2022-11-24T12:39:28.853Z,24.75
2022-11-24T12:42:12.198Z,24.83
2022-11-24T12:45:21.305Z,25.50
2022-11-24T12:48:17.562Z,25.60
2022-11-24T12:50:49.223Z,25.80
2022-11-24T12:53:23.139Z,27.00
2022-11-24T12:56:07.450Z,25.95
2022-11-24T12:58:50.205Z,27.60
2022-11-24T13:01:34.552Z,26.17
2022-11-24T13:04:15.754Z,26.40
2022-11-24T13:06:55.164Z,29.17
2022-11-24T13:09:25.039Z,28.75
2022-11-24T13:12:02.044Z,27.48
2022-11-24T13:14:35.769Z,28.38
2022-11-24T13:17:33.725Z,28.25
2022-11-24T13:20:26.335Z,26.58
2022-11-24T13:22:58.628Z,25.38
2022-11-24T13:25:31.137Z,27.25
2022-11-24T13:28:02.254Z,27.55
2022-11-24T13:30:57.919Z,26.40
2022-11-24T13:33:44.331Z,23.88
2022-11-24T13:36:36.839Z,25.08
2022-11-24T13:39:24.388Z,26.08
2022-11-24T13:42:43.609Z,26.40
2022-11-24T13:45:07.129Z,25.15
2022-11-24T13:47:46.824Z,26.48
2022-11-24T13:50:47.217Z,24.50
2022-11-24T13:53:28.816Z,26.50
2022-11-24T13:56:02.901Z,25.27
2022-11-24T13:58:40.143Z,27.70
2022-11-24T14:01:21.964Z,27.20
2022-11-24T14:04:30.519Z,24.45
2022-11-24T14:07:09.389Z,27.30
2022-11-24T14:09:44.448Z,25.58
2022-11-24T14:12:20.397Z,26.75
2022-11-24T14:14:52.977Z,26.58
2022-11-24T14:17:25.537Z,24.75
2022-11-24T14:19:57.226Z,21.98
2022-11-24T14:22:38.356Z,24.80
2022-11-24T14:25:09.466Z,25.60
2022-11-24T14:27:41.445Z,24.02
2022-11-24T14:30:24.117Z,27.55
2022-11-24T14:32:58.741Z,24.25
2022-11-24T14:35:31.498Z,24.33
2022-11-24T14:38:06.538Z,25.23
2022-11-24T14:40:45.462Z,24.05
2022-11-24T14:43:24.967Z,24.55
2022-11-24T14:45:58.200Z,24.70
2022-11-24T14:48:31.923Z,26.10
2022-11-24T14:51:16.895Z,26.25
2022-11-24T14:53:53.562Z,26.98
2022-11-24T14:56:29.454Z,27.70
2022-11-24T14:59:00.818Z,28.70
2022-11-24T15:01:36.349Z,27.52
2022-11-24T15:04:46.405Z,25.70
2022-11-24T15:07:17.979Z,25.27
2022-11-24T15:09:58.340Z,30.23
2022-11-24T15:12:34.210Z,26.40
2022-11-24T15:15:06.369Z,25.83
2022-11-24T15:17:36.529Z,24.25
2022-11-24T15:20:13.119Z,25.70
2022-11-24T15:22:45.313Z,27.38
2022-11-24T15:25:34.024Z,24.10
2022-11-24T15:28:04.175Z,23.92
2022-11-24T15:30:37.004Z,25.95
2022-11-24T15:33:15.762Z,24.50
2022-11-24T15:35:46.685Z,27.23
2022-11-24T15:38:17.375Z,25.52
2022-11-24T15:40:51.876Z,25.73
2022-11-24T15:43:31.570Z,25.73
2022-11-24T15:46:02.826Z,26.52
2022-11-24T15:48:33.185Z,25.13
2022-11-24T15:51:07.465Z,27.25
2022-11-24T15:53:40.933Z,26.65
2022-11-24T15:56:20.523Z,27.20
2022-11-24T15:58:50.343Z,26.58
2022-11-24T16:01:20.253Z,25.63
2022-11-24T16:03:50.175Z,24.92
2022-11-24T16:06:25.103Z,25.33
2022-11-24T16:08:55.853Z,29.80
2022-11-24T16:11:28.483Z,27.98
2022-11-24T16:13:58.521Z,31.15
2022-11-24T16:16:28.467Z,30.23
2022-11-24T16:18:58.389Z,33.17
2022-11-24T16:21:28.216Z,33.45
2022-11-24T16:23:58.386Z,32.63
2022-11-24T16:26:30.892Z,35.40
2022-11-24T16:29:00.738Z,30.25
2022-11-24T16:31:30.583Z,28.17
2022-11-24T16:34:00.434Z,29.60
2022-11-24T16:36:30.280Z,29.10
2022-11-24T16:39:02.305Z,27.20
2022-11-24T16:41:34.710Z,27.40
2022-11-24T16:44:04.611Z,29.38
2022-11-24T16:46:34.515Z,32.03
2022-11-24T16:49:04.500Z,27.17
2022-11-24T16:51:35.120Z,27.25
2022-11-24T16:54:06.115Z,25.75
2022-11-24T16:56:38.618Z,26.10
2022-11-24T16:59:08.947Z,27.20
2022-11-24T17:01:40.226Z,30.95
2022-11-24T17:04:12.904Z,27.17
2022-11-24T17:06:43.108Z,31.83
2022-11-24T17:09:13.114Z,31.85
2022-11-24T17:11:45.537Z,30.10
2022-11-24T17:14:15.763Z,27.83
2022-11-24T17:16:45.658Z,27.52
2022-11-24T17:19:15.579Z,29.42
2022-11-24T17:21:45.441Z,34.47
2022-11-24T17:24:17.689Z,37.88
2022-11-24T17:26:53.347Z,38.72
2022-11-24T17:29:23.558Z,29.85
2022-11-24T17:31:53.487Z,32.20
2022-11-24T17:34:23.519Z,42.65
2022-11-24T17:36:53.340Z,48.75
2022-11-24T17:39:25.169Z,51.85
2022-11-24T17:41:57.669Z,37.42
2022-11-24T17:44:27.655Z,30.20
2022-11-24T17:46:58.927Z,30.55
2022-11-24T17:49:28.777Z,30.25
2022-11-24T17:51:58.662Z,31.38
2022-11-24T17:54:45.993Z,26.95
2022-11-24T17:57:19.207Z,30.17
2022-11-24T17:59:51.125Z,29.05
2022-11-24T18:02:21.098Z,30.00
2022-11-24T18:04:51.033Z,31.00
2022-11-24T18:07:20.910Z,28.45
2022-11-24T18:09:50.827Z,28.13
2022-11-24T18:12:23.263Z,30.77
2022-11-24T18:14:53.228Z,31.08
2022-11-24T18:17:23.092Z,33.40
2022-11-24T18:19:52.933Z,30.63
2022-11-24T18:22:43.024Z,33.30
2022-11-24T18:25:12.870Z,34.13
2022-11-24T18:27:45.285Z,30.27
2022-11-24T18:30:15.927Z,31.77
2022-11-24T18:32:46.246Z,30.05
2022-11-24T18:35:16.052Z,28.35
2022-11-24T18:37:45.874Z,28.08
2022-11-24T18:40:16.198Z,27.77
2022-11-24T18:42:48.657Z,29.05
2022-11-24T18:45:18.764Z,29.88
2022-11-24T18:47:48.633Z,30.48
2022-11-24T18:50:19.738Z,32.60
2022-11-24T18:52:49.597Z,30.60
2022-11-24T18:55:19.700Z,30.02
2022-11-24T18:57:52.165Z,26.98
2022-11-24T19:00:22.661Z,28.67
2022-11-24T19:02:53.525Z,28.70
2022-11-24T19:05:23.432Z,27.38
2022-11-24T19:07:53.366Z,25.95
2022-11-24T19:10:23.290Z,27.95
2022-11-24T19:12:55.711Z,29.15
2022-11-24T19:15:25.569Z,30.13
2022-11-24T19:17:55.416Z,31.98
2022-11-24T19:20:25.269Z,33.88
2022-11-24T19:22:55.148Z,36.78
2022-11-24T19:25:24.978Z,34.58
2022-11-24T19:27:57.386Z,31.15
2022-11-24T19:30:29.167Z,31.02
2022-11-24T19:32:59.176Z,30.05
2022-11-24T19:35:29.014Z,28.63
2022-11-24T19:37:58.895Z,29.25
2022-11-24T19:40:28.803Z,29.42
2022-11-24T19:43:01.229Z,28.08
2022-11-24T19:45:32.668Z,30.15
2022-11-24T19:48:02.595Z,31.85
2022-11-24T19:50:32.416Z,30.65
2022-11-24T19:53:02.341Z,29.83
2022-11-24T19:55:32.384Z,32.58
2022-11-24T19:58:04.826Z,31.08
2022-11-24T20:00:34.667Z,29.58
2022-11-24T20:03:04.631Z,28.13
2022-11-24T20:05:34.486Z,30.90
2022-11-24T20:08:04.408Z,29.08
2022-11-24T20:10:34.726Z,27.90
2022-11-24T20:13:07.153Z,29.77
2022-11-24T20:15:37.054Z,27.70
2022-11-24T20:18:07.057Z,29.58
2022-11-24T20:20:36.876Z,30.10
2022-11-24T20:23:06.774Z,29.30
2022-11-24T20:25:39.884Z,29.25
2022-11-24T20:28:12.305Z,26.95
2022-11-24T20:30:42.163Z,31.20
2022-11-24T20:33:12.019Z,29.10
2022-11-24T20:35:41.889Z,30.23
2022-11-24T20:38:11.883Z,30.20
2022-11-24T20:40:41.762Z,29.75
2022-11-24T20:43:14.785Z,29.70
2022-11-24T20:45:44.672Z,29.23
2022-11-24T20:48:14.522Z,27.55
2022-11-24T20:50:49.798Z,28.00
2022-11-24T20:53:21.098Z,31.02
2022-11-24T20:55:50.957Z,30.73
2022-11-24T20:58:23.382Z,29.88
2022-11-24T21:00:53.250Z,31.17
2022-11-24T21:03:23.118Z,29.65
2022-11-24T21:05:58.158Z,30.10
2022-11-24T21:08:28.092Z,25.35
2022-11-24T21:10:58.990Z,28.52
2022-11-24T21:13:34.301Z,31.20
2022-11-24T21:16:14.219Z,28.83
2022-11-24T21:18:44.762Z,30.63
2022-11-24T21:21:15.550Z,30.95
2022-11-24T21:23:45.383Z,29.63
2022-11-24T21:26:17.057Z,33.47
2022-11-24T21:28:50.666Z,30.25
2022-11-24T21:31:23.298Z,29.33
2022-11-24T21:33:55.781Z,29.15
2022-11-24T21:36:28.284Z,28.17
2022-11-24T21:39:00.543Z,28.30
2022-11-24T21:41:32.281Z,27.45
2022-11-24T21:44:04.920Z,26.67
2022-11-24T21:46:40.466Z,25.33
2022-11-24T21:49:13.271Z,27.15
2022-11-24T21:51:43.093Z,27.05
2022-11-24T21:54:12.930Z,24.88
2022-11-24T21:56:42.813Z,29.55
2022-11-24T21:59:15.230Z,25.50
2022-11-24T22:01:45.138Z,25.23
2022-11-24T22:04:14.974Z,27.48
2022-11-24T22:06:45.170Z,28.05
2022-11-24T22:09:17.938Z,27.73
2022-11-24T22:11:49.253Z,28.00
2022-11-24T22:14:21.963Z,27.05
2022-11-24T22:16:51.884Z,26.40
2022-11-24T22:19:23.014Z,28.50
2022-11-24T22:21:52.852Z,27.48
2022-11-24T22:24:27.090Z,25.83
2022-11-24T22:26:57.482Z,25.50
2022-11-24T22:29:29.961Z,25.15
2022-11-24T22:32:00.271Z,28.95
2022-11-24T22:34:30.153Z,25.23
2022-11-24T22:36:59.978Z,26.98
2022-11-24T22:39:29.889Z,26.65
2022-11-24T22:41:59.844Z,27.25
2022-11-24T22:44:32.324Z,25.83
2022-11-24T22:47:02.609Z,25.40
2022-11-24T22:49:32.433Z,29.25
2022-11-24T22:52:02.242Z,26.23
2022-11-24T22:54:32.109Z,27.80
2022-11-24T22:57:01.919Z,27.30
2022-11-24T22:59:34.331Z,29.02
2022-11-24T23:02:04.246Z,28.25
2022-11-24T23:04:34.465Z,28.70
2022-11-24T23:07:04.542Z,30.08
2022-11-24T23:09:34.512Z,28.95
2022-11-24T23:12:04.493Z,28.75
2022-11-24T23:14:37.207Z,30.65
2022-11-24T23:17:07.230Z,26.70
2022-11-24T23:19:37.209Z,28.77
2022-11-24T23:22:07.150Z,28.88
2022-11-24T23:24:38.330Z,28.85
2022-11-24T23:27:08.276Z,30.08
2022-11-24T23:29:40.825Z,28.77
2022-11-24T23:32:10.704Z,28.35
2022-11-24T23:34:40.727Z,28.85
2022-11-24T23:37:10.590Z,28.52
2022-11-24T23:39:40.485Z,29.08
2022-11-24T23:42:11.008Z,29.35
2022-11-24T23:44:43.510Z,26.98
2022-11-24T23:47:13.349Z,29.27
2022-11-24T23:49:43.219Z,28.55
2022-11-24T23:52:13.033Z,27.67
2022-11-24T23:54:42.873Z,27.35
2022-11-24T23:57:12.833Z,25.65
2022-11-24T23:59:45.423Z,27.33
